Time;durP1;ratioP1;P1;durP2;ratioP2;P2;SDS_P1;SDS_P2;PMS_P1;PMS_P2;Temp;Humidity;BMP_temperature;BMP_pressure;BME280_temperature;BME280_humidity;BME280_pressure;Samples;Min_cycle;Max_cycle;Signal;HPM_P1;HPM_P2
2022/04/20 00:01:54;;;;;;;13.02;5.57;;;9.50;99.20;;;;;;6200431;23;20020;-94
2022/04/20 00:04:20;;;;;;;15.70;5.75;;;9.50;99.40;;;;;;6197098;23;20460;-95
2022/04/20 00:06:45;;;;;;;17.17;5.93;;;9.40;99.50;;;;;;6194199;23;20032;-94
2022/04/20 00:09:13;;;;;;;13.25;5.40;;;9.30;99.60;;;;;;6222459;23;20028;-94
2022/04/20 00:11:38;;;;;;;12.13;5.55;;;9.30;99.90;;;;;;6194885;23;20310;-93
2022/04/20 00:14:04;;;;;;;13.45;5.57;;;9.30;99.90;;;;;;6195099;23;20036;-93
2022/04/20 00:16:30;;;;;;;11.90;5.28;;;9.20;99.90;;;;;;6195223;23;20302;-95
2022/04/20 00:18:55;;;;;;;9.68;4.43;;;9.10;99.90;;;;;;6220051;23;20000;-96
2022/04/20 00:21:21;;;;;;;12.38;4.63;;;9.10;99.90;;;;;;6193338;23;20004;-93
2022/04/20 00:23:47;;;;;;;10.95;3.85;;;9.10;99.90;;;;;;6219645;23;20020;-94
2022/04/20 00:26:13;;;;;;;8.50;3.53;;;9.00;99.90;;;;;;6194780;23;20000;-95
2022/04/20 00:28:38;;;;;;;6.85;3.35;;;9.00;99.90;;;;;;6220261;23;20001;-93
2022/04/20 00:31:04;;;;;;;8.23;3.22;;;9.00;99.90;;;;;;6194089;23;19997;-94
2022/04/20 00:33:30;;;;;;;5.90;3.13;;;8.90;99.90;;;;;;6220059;23;20016;-95
2022/04/20 00:35:55;;;;;;;7.45;2.95;;;8.90;99.90;;;;;;6221140;23;19997;-94
2022/04/20 00:38:21;;;;;;;5.28;2.33;;;8.80;99.90;;;;;;6191846;23;20055;-93
2022/04/20 00:40:51;;;;;;;7.03;2.78;;;8.80;99.90;;;;;;6191740;23;20006;-94
2022/04/20 00:43:18;;;;;;;12.65;2.88;;;8.80;99.90;;;;;;6218400;23;20444;-93
2022/04/20 00:45:44;;;;;;;9.50;2.40;;;8.70;99.90;;;;;;6191265;23;20031;-95
2022/04/20 00:48:11;;;;;;;7.78;2.30;;;8.70;99.90;;;;;;6217174;23;20005;-93
2022/04/20 00:50:40;;;;;;;7.78;2.33;;;8.60;99.90;;;;;;6217877;23;20082;-93
2022/04/20 00:53:07;;;;;;;5.38;1.88;;;8.60;99.90;;;;;;6218558;23;20435;-93
2022/04/20 00:55:33;;;;;;;8.10;1.98;;;8.50;99.90;;;;;;6196741;23;20007;-93
2022/04/20 00:57:58;;;;;;;6.07;1.92;;;8.40;99.90;;;;;;6196599;23;20463;-94
2022/04/20 01:00:27;;;;;;;7.60;1.83;;;8.40;99.90;;;;;;6190819;23;20004;-94
2022/04/20 01:02:56;;;;;;;8.82;1.95;;;8.30;99.90;;;;;;6218456;23;20008;-94
2022/04/20 01:05:23;;;;;;;9.57;1.95;;;8.20;99.90;;;;;;6219894;23;20070;-95
2022/04/20 01:07:49;;;;;;;11.38;2.40;;;8.10;99.90;;;;;;6217258;23;20016;-94
2022/04/20 01:10:15;;;;;;;7.25;2.17;;;8.10;99.90;;;;;;6217845;23;20091;-95
2022/04/20 01:12:45;;;;;;;7.03;1.80;;;8.00;99.90;;;;;;6217462;23;20005;-95
2022/04/20 01:15:14;;;;;;;11.67;1.70;;;8.00;99.90;;;;;;6192138;23;20009;-94
2022/04/20 01:17:42;;;;;;;5.57;1.90;;;8.00;99.90;;;;;;6191852;23;20004;-93
2022/04/20 01:20:15;;;;;;;4.93;1.50;;;8.00;99.90;;;;;;6191970;23;20059;-94
2022/04/20 01:22:42;;;;;;;5.75;2.00;;;7.90;99.90;;;;;;6192035;23;20025;-96
2022/04/20 01:25:08;;;;;;;3.97;1.83;;;7.90;99.90;;;;;;6218057;23;19996;-93
2022/04/20 01:27:39;;;;;;;10.07;2.55;;;7.80;99.90;;;;;;6218483;23;20460;-94
2022/04/20 01:30:05;;;;;;;;;;;7.80;99.90;;;;;;6218284;23;19997;-95
2022/04/20 01:32:31;;;;;;;6.18;2.05;;;7.70;99.90;;;;;;6190836;23;19979;-95
2022/04/20 01:34:56;;;;;;;6.18;1.70;;;7.60;99.90;;;;;;6191803;23;20047;-95
2022/04/20 01:37:22;;;;;;;8.88;1.80;;;7.60;99.90;;;;;;6193229;23;20036;-95
2022/04/20 01:39:48;;;;;;;5.18;1.70;;;7.60;99.90;;;;;;6212479;23;20020;-95
2022/04/20 01:42:13;;;;;;;7.95;2.60;;;7.60;99.90;;;;;;6219954;23;20011;-94
2022/04/20 01:44:39;;;;;;;7.38;2.17;;;7.60;99.90;;;;;;6194303;23;20004;-95
2022/04/20 01:47:05;;;;;;;8.43;1.90;;;7.50;99.90;;;;;;6194147;23;20020;-94
2022/04/20 01:49:31;;;;;;;6.43;1.90;;;7.40;99.90;;;;;;6194412;23;20035;-95
2022/04/20 01:51:57;;;;;;;4.68;1.80;;;7.40;99.90;;;;;;6218678;23;20001;-96
2022/04/20 01:54:23;;;;;;;6.28;2.50;;;7.40;99.90;;;;;;6191293;23;20391;-95
2022/04/20 01:56:51;;;;;;;8.88;3.20;;;7.30;99.90;;;;;;6219523;23;20088;-94
2022/04/20 01:59:17;;;;;;;5.38;2.65;;;7.30;99.90;;;;;;6193355;23;20001;-95
2022/04/20 02:04:27;;;;;;;6.63;2.83;;;7.30;99.90;;;;;;6224247;23;20008;-95
2022/04/20 02:06:53;;;;;;;5.38;1.98;;;7.30;99.90;;;;;;6222783;23;20009;-94
2022/04/20 02:09:19;;;;;;;5.07;2.17;;;7.30;99.90;;;;;;6223066;23;20009;-93
2022/04/20 02:11:46;;;;;;;8.15;3.13;;;7.30;99.90;;;;;;6195399;23;20008;-94
2022/04/20 02:14:11;;;;;;;7.10;2.85;;;7.30;99.90;;;;;;6194769;23;20013;-95
2022/04/20 02:16:39;;;;;;;6.63;2.75;;;7.30;99.90;;;;;;6227265;23;20047;-94
2022/04/20 02:19:05;;;;;;;8.45;2.60;;;7.30;99.90;;;;;;6227972;23;19996;-93
2022/04/20 02:21:31;;;;;;;7.43;2.58;;;7.30;99.90;;;;;;6199494;23;20009;-93
2022/04/20 02:23:57;;;;;;;10.60;2.60;;;7.30;99.90;;;;;;6200814;23;20028;-95
2022/04/20 02:26:23;;;;;;;8.65;2.67;;;7.30;99.90;;;;;;6230757;23;20027;-96
2022/04/20 02:28:49;;;;;;;7.13;2.30;;;7.30;99.90;;;;;;6235396;23;20004;-93
2022/04/20 02:31:16;;;;;;;9.80;3.05;;;7.20;99.90;;;;;;6213871;23;20095;-92
2022/04/20 02:33:42;;;;;;;6.35;3.00;;;7.20;99.90;;;;;;6237409;23;20060;-95
2022/04/20 02:36:08;;;;;;;8.45;2.75;;;7.20;99.90;;;;;;6204961;23;20035;-94
2022/04/20 02:38:35;;;;;;;8.50;2.75;;;7.30;99.90;;;;;;6228037;23;20004;-95
2022/04/20 02:41:01;;;;;;;15.90;3.05;;;7.30;99.90;;;;;;6224671;23;20088;-95
2022/04/20 02:43:27;;;;;;;10.70;3.13;;;7.40;99.90;;;;;;6223241;23;20058;-94
2022/04/20 02:45:54;;;;;;;7.93;2.70;;;7.40;99.90;;;;;;6199093;23;20401;-94
2022/04/20 02:48:20;;;;;;;6.43;2.85;;;7.40;99.90;;;;;;6196646;23;20004;-95
2022/04/20 02:50:46;;;;;;;6.38;2.53;;;7.40;99.90;;;;;;6194183;23;20072;-94
2022/04/20 02:53:13;;;;;;;5.80;2.83;;;7.40;99.90;;;;;;6221511;23;20027;-94
2022/04/20 02:55:39;;;;;;;6.35;2.17;;;7.40;99.90;;;;;;6221145;23;20076;-95
2022/04/20 02:58:05;;;;;;;8.85;2.72;;;7.30;99.90;;;;;;6171038;23;20062;-95
2022/04/20 03:00:32;;;;;;;9.43;2.47;;;7.30;99.90;;;;;;6195056;23;20088;-95
2022/04/20 03:02:58;;;;;;;6.60;3.00;;;7.30;99.90;;;;;;6194384;23;20009;-94
2022/04/20 03:05:24;;;;;;;7.03;3.00;;;7.30;99.90;;;;;;6194171;23;20007;-95
2022/04/20 03:07:51;;;;;;;5.95;3.28;;;7.20;99.90;;;;;;6193193;23;20326;-92
2022/04/20 03:10:17;;;;;;;8.63;2.58;;;7.20;99.90;;;;;;6220966;23;20084;-96
2022/04/20 03:12:43;;;;;;;8.02;2.53;;;7.10;99.90;;;;;;6219791;23;20005;-95
2022/04/20 03:15:09;;;;;;;7.25;3.08;;;7.10;99.90;;;;;;6169756;23;20019;-94
2022/04/20 03:17:35;;;;;;;7.10;3.10;;;7.10;99.90;;;;;;6220406;23;20027;-95
2022/04/20 03:20:01;;;;;;;7.75;2.85;;;7.10;99.90;;;;;;6196351;23;20004;-94
2022/04/20 03:22:27;;;;;;;4.68;2.35;;;7.00;99.90;;;;;;6210447;23;20024;-93
2022/04/20 03:24:53;;;;;;;6.53;3.40;;;7.00;99.90;;;;;;6203707;23;20067;-94
2022/04/20 03:27:21;;;;;;;6.78;2.70;;;7.00;99.90;;;;;;6197937;23;20092;-95
2022/04/20 03:29:47;;;;;;;7.15;2.80;;;7.00;99.90;;;;;;6195423;23;20004;-95
2022/04/20 03:32:15;;;;;;;9.00;3.35;;;6.90;99.90;;;;;;6194916;23;20000;-94
2022/04/20 03:34:42;;;;;;;7.10;2.83;;;7.00;99.90;;;;;;6196655;23;20028;-95
2022/04/20 03:37:09;;;;;;;7.93;2.90;;;6.90;99.90;;;;;;6197794;23;19997;-96
2022/04/20 03:39:36;;;;;;;9.50;4.18;;;7.00;99.90;;;;;;6198530;23;20009;-96
2022/04/20 03:42:03;;;;;;;9.80;3.83;;;7.00;99.90;;;;;;6201793;23;20020;-95
2022/04/20 03:44:30;;;;;;;7.03;3.00;;;7.00;99.90;;;;;;6200307;23;20009;-95
2022/04/20 03:46:56;;;;;;;10.63;3.80;;;6.90;99.90;;;;;;6207953;23;19996;-95
2022/04/20 03:49:21;;;;;;;9.52;4.15;;;6.90;99.90;;;;;;6198853;23;20020;-95
2022/04/20 03:51:47;;;;;;;10.70;4.15;;;6.90;99.90;;;;;;6198327;23;19997;-96
2022/04/20 03:54:13;;;;;;;7.47;3.53;;;6.90;99.90;;;;;;6196339;23;20020;-95
2022/04/20 03:59:23;;;;;;;12.05;4.70;;;6.90;99.90;;;;;;6220874;23;20012;-94
2022/04/20 04:01:50;;;;;;;11.82;4.50;;;6.90;99.90;;;;;;6197338;23;20004;-93
2022/04/20 04:04:16;;;;;;;11.73;4.85;;;6.90;99.90;;;;;;6200973;23;20004;-93
2022/04/20 04:06:42;;;;;;;9.77;4.75;;;6.90;99.90;;;;;;6209309;23;20077;-94
2022/04/20 04:09:07;;;;;;;9.02;5.03;;;6.90;99.90;;;;;;6200124;23;20000;-95
2022/04/20 04:11:33;;;;;;;11.50;4.05;;;6.90;99.90;;;;;;6201734;23;20035;-95
2022/04/20 04:13:59;;;;;;;10.32;5.00;;;6.90;99.90;;;;;;6201086;23;20044;-95
2022/04/20 04:16:25;;;;;;;10.55;4.80;;;6.80;99.90;;;;;;6201100;23;20000;-93
2022/04/20 04:18:50;;;;;;;8.80;4.60;;;6.80;99.90;;;;;;6200740;23;20463;-95
2022/04/20 04:21:17;;;;;;;10.68;5.15;;;6.80;99.90;;;;;;6198312;23;19997;-93
2022/04/20 04:23:43;;;;;;;15.73;6.25;;;6.70;99.90;;;;;;6197534;23;20116;-94
2022/04/20 04:26:09;;;;;;;10.23;5.10;;;6.70;99.90;;;;;;6197751;23;20005;-94
2022/04/20 04:28:35;;;;;;;9.75;5.10;;;6.70;99.90;;;;;;6197509;23;20004;-95
2022/04/20 04:31:01;;;;;;;15.68;6.15;;;6.70;99.90;;;;;;6196482;23;20000;-95
2022/04/20 04:33:27;;;;;;;13.05;5.97;;;6.60;99.90;;;;;;6197874;23;20020;-94
2022/04/20 04:35:52;;;;;;;12.82;6.40;;;6.60;99.90;;;;;;6201100;23;20001;-95
2022/04/20 04:38:18;;;;;;;11.88;5.80;;;6.60;99.90;;;;;;6199914;23;20005;-94
2022/04/20 04:40:44;;;;;;;14.13;6.13;;;6.60;99.90;;;;;;6196330;23;20063;-95
2022/04/20 04:43:10;;;;;;;12.15;5.32;;;6.60;99.90;;;;;;6197444;23;20001;-94
2022/04/20 04:51:08;;;;;;;17.55;7.80;;;6.50;99.90;;;;;;6224455;23;20067;-95
2022/04/20 04:53:33;;;;;;;11.88;6.40;;;6.50;99.90;;;;;;6208239;23;20012;-93
2022/04/20 04:55:59;;;;;;;13.07;5.60;;;6.50;99.90;;;;;;6211734;23;20008;-95
2022/04/20 04:58:25;;;;;;;13.60;5.80;;;6.50;99.90;;;;;;6212625;23;20103;-96
2022/04/20 05:00:51;;;;;;;11.13;5.28;;;6.50;99.90;;;;;;6206337;23;20123;-94
2022/04/20 05:03:17;;;;;;;13.93;6.47;;;6.40;99.90;;;;;;6203589;23;20454;-96
2022/04/20 05:05:43;;;;;;;14.45;7.22;;;6.40;99.90;;;;;;6204222;23;20007;-95
2022/04/20 05:08:10;;;;;;;16.52;6.90;;;6.40;99.90;;;;;;6202418;23;20084;-95
2022/04/20 05:10:37;;;;;;;16.92;6.55;;;6.40;99.90;;;;;;6201548;23;20016;-96
2022/04/20 05:13:05;;;;;;;12.52;6.15;;;6.40;99.90;;;;;;6227516;23;20313;-95
2022/04/20 05:15:30;;;;;;;15.38;6.28;;;6.40;99.90;;;;;;6200555;23;20000;-95
2022/04/20 05:17:57;;;;;;;11.98;6.55;;;6.30;99.90;;;;;;6197940;23;20016;-94
2022/04/20 05:20:22;;;;;;;16.48;6.78;;;6.30;99.90;;;;;;6198741;23;20128;-95
2022/04/20 05:22:49;;;;;;;15.18;6.97;;;6.30;99.90;;;;;;6195547;23;20013;-95
2022/04/20 05:25:15;;;;;;;18.15;6.97;;;6.30;99.90;;;;;;6195474;23;20428;-94
2022/04/20 05:27:41;;;;;;;13.82;5.93;;;6.30;99.90;;;;;;6195114;23;20007;-94
2022/04/20 05:30:10;;;;;;;17.65;7.05;;;6.30;99.90;;;;;;6194955;23;20009;-95
2022/04/20 05:32:36;;;;;;;19.45;7.85;;;6.30;99.90;;;;;;6195001;23;20009;-95
2022/04/20 05:35:01;;;;;;;20.77;8.85;;;6.30;99.90;;;;;;6195651;23;20015;-94
2022/04/20 05:42:57;;;;;;;12.63;7.53;;;6.20;99.90;;;;;;6224951;23;20020;-95
2022/04/20 05:45:23;;;;;;;19.33;8.43;;;6.30;99.90;;;;;;6198263;23;20007;-95
2022/04/20 05:47:49;;;;;;;13.15;6.78;;;6.30;99.90;;;;;;6197038;23;20439;-94
2022/04/20 05:50:15;;;;;;;21.85;9.95;;;6.30;99.90;;;;;;6195139;23;20007;-92
2022/04/20 05:52:41;;;;;;;25.27;9.75;;;6.30;99.90;;;;;;6193966;23;20039;-94
2022/04/20 05:55:07;;;;;;;21.48;9.95;;;6.30;99.90;;;;;;6193579;23;20340;-94
2022/04/20 05:57:33;;;;;;;17.55;8.27;;;6.40;99.90;;;;;;6194260;23;20052;-93
2022/04/20 06:00:00;;;;;;;13.25;6.30;;;6.40;99.90;;;;;;6194945;23;20009;-94
2022/04/20 06:02:26;;;;;;;12.07;5.95;;;6.40;99.90;;;;;;6196020;23;20000;-94
2022/04/20 06:04:52;;;;;;;12.15;5.78;;;6.50;99.90;;;;;;6197313;23;20018;-95
2022/04/20 06:07:18;;;;;;;17.70;9.02;;;6.50;99.90;;;;;;6196780;23;20026;-96
2022/04/20 06:09:44;;;;;;;16.95;8.57;;;6.50;99.90;;;;;;6196927;23;20087;-95
2022/04/20 06:12:10;;;;;;;17.65;8.63;;;6.50;99.90;;;;;;6205569;23;20005;-94
2022/04/20 06:14:35;;;;;;;20.65;9.52;;;6.60;99.90;;;;;;6199518;23;20009;-96
2022/04/20 06:17:01;;;;;;;21.52;10.05;;;6.60;99.90;;;;;;6195602;23;20001;-95
2022/04/20 06:19:27;;;;;;;20.58;9.65;;;6.60;99.90;;;;;;6194299;23;20020;-94
2022/04/20 06:21:52;;;;;;;21.77;10.45;;;6.60;99.90;;;;;;6194722;23;20028;-94
2022/04/20 06:24:18;;;;;;;21.17;9.75;;;6.60;99.90;;;;;;6195933;23;19997;-96
2022/04/20 06:26:44;;;;;;;21.60;8.85;;;6.60;99.90;;;;;;6195982;23;20032;-95
2022/04/20 06:29:10;;;;;;;22.80;9.48;;;6.70;99.90;;;;;;6204897;23;20019;-95
2022/04/20 06:31:35;;;;;;;26.23;10.15;;;6.70;99.90;;;;;;6208873;23;20001;-95
2022/04/20 06:34:02;;;;;;;24.80;10.85;;;6.80;99.90;;;;;;6211292;23;20080;-94
2022/04/20 06:36:29;;;;;;;21.40;11.00;;;6.80;99.90;;;;;;6196618;23;20447;-95
2022/04/20 06:38:54;;;;;;;25.52;10.45;;;6.90;99.90;;;;;;6195499;23;20028;-94
2022/04/20 06:41:20;;;;;;;23.63;10.85;;;6.90;99.90;;;;;;6191057;23;20003;-95
2022/04/20 06:43:46;;;;;;;20.45;9.48;;;7.00;99.90;;;;;;6191802;23;20115;-95
2022/04/20 06:46:12;;;;;;;21.30;10.23;;;7.00;99.90;;;;;;6192797;23;19997;-95
2022/04/20 06:48:38;;;;;;;22.77;11.40;;;7.10;99.90;;;;;;6193228;23;20012;-94
2022/04/20 06:51:03;;;;;;;24.08;11.32;;;7.20;99.90;;;;;;6193467;23;20008;-95
2022/04/20 06:58:57;;;;;;;27.48;12.13;;;7.30;99.90;;;;;;6217322;23;20007;-95
2022/04/20 07:01:23;;;;;;;31.52;13.85;;;7.40;99.90;;;;;;6191630;23;20444;-95
2022/04/20 07:03:49;;;;;;;25.05;12.75;;;7.50;99.90;;;;;;6191308;23;20020;-94
2022/04/20 07:06:15;;;;;;;26.17;13.07;;;7.50;99.90;;;;;;6190908;23;20009;-94
2022/04/20 07:08:41;;;;;;;24.20;12.20;;;7.60;99.90;;;;;;6194022;23;20008;-93
2022/04/20 07:11:07;;;;;;;29.50;12.50;;;7.70;99.90;;;;;;6195664;23;20030;-94
2022/04/20 07:13:33;;;;;;;22.55;13.20;;;7.70;99.90;;;;;;6199447;23;20012;-94
2022/04/20 07:15:59;;;;;;;25.85;12.90;;;7.70;99.90;;;;;;6202303;23;20040;-94
2022/04/20 07:18:24;;;;;;;25.73;12.38;;;7.80;99.90;;;;;;6195068;23;20004;-95
2022/04/20 07:20:51;;;;;;;23.67;12.45;;;7.80;99.90;;;;;;6198425;23;20007;-94
2022/04/20 07:23:17;;;;;;;24.23;11.95;;;7.90;99.90;;;;;;6210128;23;20016;-93
2022/04/20 07:25:43;;;;;;;25.48;12.02;;;7.90;99.90;;;;;;6208860;23;19997;-93
2022/04/20 07:28:09;;;;;;;20.40;9.65;;;8.00;99.90;;;;;;6207408;23;20001;-93
2022/04/20 07:30:36;;;;;;;18.98;11.18;;;8.10;99.90;;;;;;6205279;23;20084;-94
2022/04/20 07:33:03;;;;;;;20.02;10.52;;;8.20;99.90;;;;;;6199141;23;20103;-94
2022/04/20 07:35:29;;;;;;;27.13;12.77;;;8.20;99.90;;;;;;6196513;23;20012;-95
2022/04/20 07:40:45;;;;;;;20.00;10.48;;;8.40;99.90;;;;;;6210318;23;20040;-95
2022/04/20 07:43:10;;;;;;;19.92;11.43;;;8.50;99.90;;;;;;6195533;23;20013;-95
2022/04/20 07:45:37;;;;;;;19.00;9.88;;;8.60;99.90;;;;;;6195907;23;20083;-95
2022/04/20 07:50:41;;;;;;;25.52;11.43;;;8.80;99.90;;;;;;6226098;23;20027;-95
2022/04/20 07:53:07;;;;;;;20.80;9.68;;;8.90;99.90;;;;;;6224797;23;20076;-96
2022/04/20 07:55:37;;;;;;;26.27;11.18;;;9.00;99.90;;;;;;6222999;23;20000;-95
2022/04/20 07:58:06;;;;;;;21.98;10.25;;;9.10;99.90;;;;;;6195671;23;20000;-94
2022/04/20 08:00:32;;;;;;;18.83;9.18;;;9.20;99.90;;;;;;6220264;23;20011;-95
2022/04/20 08:03:16;;;;;;;23.75;10.05;;;9.30;99.90;;;;;;6191892;23;20008;-95
2022/04/20 08:05:43;;;;;;;18.45;9.50;;;9.50;99.90;;;;;;6194301;23;20005;-95
2022/04/20 08:08:10;;;;;;;20.13;9.77;;;9.50;99.90;;;;;;6192392;23;20011;-95
2022/04/20 08:10:37;;;;;;;20.92;9.73;;;9.60;99.90;;;;;;6187034;23;20004;-96
2022/04/20 08:14:09;;;;;;;17.67;9.23;;;9.70;99.90;;;;;;6189986;23;20015;-96
2022/04/20 08:15:48;;;;;;;18.77;9.13;;;9.80;99.90;;;;;;6189280;23;20031;-96
2022/04/20 08:18:15;;;;;;;25.67;8.38;;;9.90;99.90;;;;;;6162566;23;20008;-95
2022/04/20 08:20:42;;;;;;;14.27;7.47;;;10.00;99.90;;;;;;6161578;23;20440;-95
2022/04/20 08:23:07;;;;;;;14.25;7.15;;;10.20;99.90;;;;;;6188795;23;20005;-95
2022/04/20 08:25:33;;;;;;;14.60;6.40;;;10.30;99.90;;;;;;6159455;23;20519;-95
2022/04/20 08:27:59;;;;;;;15.07;5.72;;;10.50;99.90;;;;;;6161516;23;20015;-95
2022/04/20 08:30:25;;;;;;;15.05;8.02;;;10.60;99.90;;;;;;6161276;23;20001;-96
2022/04/20 08:32:51;;;;;;;17.27;6.53;;;10.70;99.90;;;;;;6162228;23;20023;-95
2022/04/20 08:35:17;;;;;;;14.50;7.05;;;10.90;99.90;;;;;;6162266;23;20043;-95
2022/04/20 08:37:42;;;;;;;14.18;6.97;;;11.00;99.90;;;;;;6161125;23;20044;-95
2022/04/20 08:40:09;;;;;;;12.80;6.30;;;11.10;99.90;;;;;;6168941;23;20048;-96
2022/04/20 08:42:35;;;;;;;11.25;6.30;;;11.20;99.90;;;;;;6162598;23;20001;-95
2022/04/20 08:45:02;;;;;;;17.23;7.57;;;11.30;99.90;;;;;;6188377;23;20032;-95
2022/04/20 08:47:36;;;;;;;15.32;7.80;;;11.40;99.90;;;;;;6186532;23;20084;-94
2022/04/20 08:50:03;;;;;;;14.82;7.18;;;11.50;99.90;;;;;;6178410;23;20106;-96
2022/04/20 08:52:38;;;;;;;16.00;7.18;;;11.60;99.90;;;;;;6161322;23;20005;-95
2022/04/20 08:55:15;;;;;;;11.82;7.72;;;11.80;99.90;;;;;;6161287;23;20005;-95
2022/04/20 08:57:44;;;;;;;16.25;6.88;;;11.90;99.10;;;;;;6190131;23;19997;-94
2022/04/20 09:00:12;;;;;;;14.20;7.32;;;11.90;98.20;;;;;;6193243;23;20080;-95
2022/04/20 09:02:38;;;;;;;12.35;6.93;;;12.10;97.80;;;;;;6164316;23;20169;-95
2022/04/20 09:05:04;;;;;;;11.40;6.80;;;12.20;97.30;;;;;;6188633;23;20139;-94
2022/04/20 09:07:31;;;;;;;14.57;7.10;;;12.30;96.80;;;;;;6161400;23;20121;-95
2022/04/20 09:09:57;;;;;;;14.80;7.57;;;12.50;96.30;;;;;;6159682;23;20345;-94
2022/04/20 09:12:23;;;;;;;13.38;6.78;;;12.60;95.90;;;;;;6159365;23;20005;-94
2022/04/20 09:14:51;;;;;;;15.77;6.93;;;12.80;95.30;;;;;;6159777;23;20520;-95
2022/04/20 09:17:21;;;;;;;15.43;7.10;;;13.00;94.60;;;;;;6159428;23;20180;-95
2022/04/20 09:19:52;;;;;;;15.68;7.43;;;13.20;93.80;;;;;;6163422;23;20009;-93
2022/04/20 09:22:22;;;;;;;16.15;7.43;;;13.40;93.10;;;;;;6186263;23;20001;-93
2022/04/20 09:27:48;;;;;;;13.23;6.70;;;13.70;91.40;;;;;;6197742;22;20035;-94
2022/04/20 09:30:21;;;;;;;13.90;6.70;;;14.00;90.70;;;;;;6160752;23;20029;-96
2022/04/20 09:32:49;;;;;;;15.18;6.78;;;14.10;90.30;;;;;;6160397;23;20025;-96
2022/04/20 09:35:19;;;;;;;16.08;6.88;;;14.20;88.90;;;;;;6164601;23;20017;-96
2022/04/20 09:37:45;;;;;;;11.80;6.43;;;14.40;87.70;;;;;;6178553;23;20139;-95
2022/04/20 09:40:13;;;;;;;12.90;6.80;;;14.50;86.60;;;;;;6161978;23;20202;-95
2022/04/20 09:43:09;;;;;;;16.85;6.55;;;14.60;85.40;;;;;;6166067;23;20009;-96
2022/04/20 09:45:38;;;;;;;12.48;6.00;;;14.80;84.80;;;;;;6175715;23;20057;-96
2022/04/20 09:51:11;;;;;;;12.95;5.55;;;15.00;82.10;;;;;;6195134;23;20043;-93
2022/04/20 09:53:42;;;;;;;11.68;6.18;;;15.30;81.60;;;;;;6181852;23;20024;-94
2022/04/20 09:56:22;;;;;;;12.65;6.65;;;15.40;80.60;;;;;;6179951;23;20001;-96
2022/04/20 09:59:00;;;;;;;13.27;5.87;;;15.50;79.30;;;;;;6173311;23;20005;-95
2022/04/20 10:01:35;;;;;;;12.93;6.10;;;15.50;78.70;;;;;;6195352;23;20001;-95
2022/04/20 10:04:05;;;;;;;16.02;6.03;;;15.60;77.80;;;;;;6172302;23;20012;-96
2022/04/20 10:06:31;;;;;;;11.18;6.40;;;15.70;76.40;;;;;;6195900;23;20023;-95
2022/04/20 10:08:58;;;;;;;11.57;5.70;;;15.70;75.60;;;;;;6167143;23;20009;-95
2022/04/20 10:11:24;;;;;;;13.07;5.95;;;15.90;75.00;;;;;;6189920;23;20008;-95
2022/04/20 10:16:45;;;;;;;10.52;5.35;;;16.00;73.90;;;;;;6192344;23;20008;-94
2022/04/20 10:19:12;;;;;;;;;;;16.20;73.50;;;;;;6166821;23;20036;-94
2022/04/20 10:21:47;;;;;;;10.60;5.80;;;16.30;73.00;;;;;;6162772;23;19927;-93
2022/04/20 10:24:18;;;;;;;14.80;6.38;;;16.50;72.30;;;;;;6159750;23;20009;-94
2022/04/20 10:26:44;;;;;;;10.90;5.75;;;16.60;71.60;;;;;;6165470;23;19997;-94
2022/04/20 10:29:17;;;;;;;9.77;5.90;;;16.60;70.90;;;;;;6163866;23;20005;-94
2022/04/20 10:31:48;;;;;;;13.88;6.40;;;16.70;71.20;;;;;;6185662;23;20005;-94
2022/04/20 10:34:19;;;;;;;11.30;6.40;;;16.90;71.20;;;;;;6158958;23;20020;-94
2022/04/20 10:37:01;;;;;;;;;;;17.10;71.00;;;;;;6157793;23;20092;-95
2022/04/20 10:39:30;;;;;;;9.68;5.53;;;17.20;70.60;;;;;;6165710;23;19928;-94
2022/04/20 10:42:11;;;;;;;9.52;5.63;;;17.40;69.90;;;;;;6161632;23;20005;-94
2022/04/20 10:44:55;;;;;;;12.35;6.82;;;17.50;69.00;;;;;;6185750;23;20028;-94
2022/04/20 10:47:26;;;;;;;10.95;6.40;;;17.50;68.30;;;;;;6162165;23;20012;-94
2022/04/20 10:49:53;;;;;;;14.52;5.57;;;17.40;68.40;;;;;;6160851;23;20032;-94
2022/04/20 10:52:30;;;;;;;15.10;7.55;;;17.40;68.60;;;;;;6159726;23;20013;-93
2022/04/20 10:54:56;;;;;;;12.15;6.55;;;17.50;68.60;;;;;;6160815;23;20013;-93
2022/04/20 10:57:42;;;;;;;11.73;6.82;;;17.60;68.50;;;;;;6162460;23;20016;-92
2022/04/20 11:00:27;;;;;;;10.18;6.22;;;17.60;67.40;;;;;;6163595;23;20009;-95
2022/04/20 11:19:57;;;;;;;6.05;4.03;;;18.10;65.90;;;;;;6203685;23;20012;-94
2022/04/20 11:22:23;;;;;;;;;;;18.20;65.30;;;;;;6175391;23;20005;-95
2022/04/20 11:25:02;;;;;;;6.15;4.13;;;18.30;64.30;;;;;;6177289;23;19915;-96
2022/04/20 11:27:37;;;;;;;6.55;4.15;;;18.40;64.00;;;;;;6182973;23;20001;-95
2022/04/20 11:30:07;;;;;;;10.75;4.88;;;18.50;63.40;;;;;;6175417;23;20007;-94
2022/04/20 11:32:33;;;;;;;9.45;5.03;;;18.60;63.00;;;;;;6181770;23;20028;-96
2022/04/20 11:35:12;;;;;;;9.00;5.35;;;18.70;62.50;;;;;;6213621;23;20005;-96
2022/04/20 11:37:39;;;;;;;9.30;5.00;;;18.70;61.80;;;;;;6179366;23;20009;-96
2022/04/20 11:40:12;;;;;;;8.15;5.38;;;18.70;62.00;;;;;;6167740;23;20333;-95
2022/04/20 11:42:42;;;;;;;8.15;4.97;;;18.60;61.80;;;;;;6192430;23;20040;-95
2022/04/20 11:45:09;;;;;;;10.88;4.85;;;18.60;61.80;;;;;;6166939;23;20005;-95
2022/04/20 11:47:42;;;;;;;8.88;5.15;;;18.70;61.50;;;;;;6192296;23;20020;-96
2022/04/20 11:50:09;;;;;;;9.32;4.85;;;18.70;61.30;;;;;;6165196;23;20001;-96
2022/04/20 11:52:36;;;;;;;9.90;4.28;;;18.70;61.50;;;;;;6173561;23;19993;-96
2022/04/20 11:55:06;;;;;;;8.18;4.45;;;18.60;61.00;;;;;;6173669;23;20032;-95
2022/04/20 11:57:32;;;;;;;5.10;3.42;;;18.70;60.40;;;;;;6171814;23;20032;-96
2022/04/20 12:00:00;;;;;;;13.20;4.45;;;18.70;60.00;;;;;;6198057;23;20021;-95
2022/04/20 12:02:26;;;;;;;9.20;4.40;;;18.70;59.70;;;;;;6170669;23;20390;-96
2022/04/20 12:05:09;;;;;;;7.97;5.38;;;18.70;59.80;;;;;;6201442;23;19997;-96
2022/04/20 12:07:36;;;;;;;8.40;4.13;;;18.80;59.80;;;;;;6178536;23;20002;-95
2022/04/20 12:10:04;;;;;;;8.23;3.90;;;18.70;59.20;;;;;;6201349;23;20083;-95
2022/04/20 12:12:32;;;;;;;8.48;4.28;;;18.60;59.30;;;;;;6167512;23;20020;-95
2022/04/20 12:15:08;;;;;;;7.80;3.90;;;18.60;59.70;;;;;;6195124;23;20062;-96
2022/04/20 12:17:36;;;;;;;9.90;3.90;;;18.70;59.20;;;;;;6170637;23;20035;-95
2022/04/20 12:20:03;;;;;;;6.55;3.15;;;18.70;58.70;;;;;;6179630;23;20024;-96
2022/04/20 12:22:29;;;;;;;7.63;2.90;;;18.80;58.50;;;;;;6184809;23;19993;-96
2022/04/20 12:25:19;;;;;;;7.45;3.17;;;18.90;58.30;;;;;;6207862;23;20000;-96
2022/04/20 12:27:53;;;;;;;6.57;3.45;;;18.90;57.90;;;;;;6180357;23;20009;-94
2022/04/20 12:30:46;;;;;;;6.07;2.90;;;18.90;57.10;;;;;;6183199;23;20009;-96
2022/04/20 12:33:24;;;;;;;5.20;3.00;;;18.80;57.40;;;;;;6184483;23;20057;-96
2022/04/20 12:36:08;;;;;;;7.30;2.90;;;18.80;57.50;;;;;;6182866;23;20021;-96
2022/04/20 12:38:44;;;;;;;6.40;2.95;;;18.90;57.50;;;;;;6206929;23;20004;-95
2022/04/20 12:41:38;;;;;;;5.30;3.00;;;19.00;57.10;;;;;;6199371;23;20043;-96
2022/04/20 12:44:46;;;;;;;7.70;3.22;;;19.00;56.60;;;;;;6175012;23;20058;-96
2022/04/20 12:52:59;;;;;;;6.65;3.20;;;19.40;56.60;;;;;;6144944;23;20073;-96
2022/04/20 13:02:01;;;;;;;6.72;3.38;;;19.70;56.20;;;;;;6139005;23;20018;-94
2022/04/20 13:04:11;;;;;;;7.28;3.25;;;20.00;55.10;;;;;;6141762;23;20101;-95
2022/04/20 13:06:39;;;;;;;10.25;3.88;;;20.00;55.10;;;;;;6137775;23;20017;-95
2022/04/20 13:09:06;;;;;;;9.38;3.60;;;20.10;54.80;;;;;;6121669;23;20430;-95
2022/04/20 13:11:38;;;;;;;5.80;3.40;;;20.10;54.70;;;;;;6168792;23;20005;-96
2022/04/20 13:14:06;;;;;;;7.35;3.63;;;20.10;54.60;;;;;;6155608;23;20001;-96
2022/04/20 13:16:32;;;;;;;8.15;4.03;;;19.90;54.80;;;;;;6151082;23;20020;-95
2022/04/20 13:18:59;;;;;;;6.90;3.65;;;19.90;54.90;;;;;;6143357;23;20527;-95
2022/04/20 13:21:26;;;;;;;8.35;4.55;;;19.90;54.80;;;;;;6167049;23;20001;-95
2022/04/20 13:23:52;;;;;;;6.50;3.65;;;19.90;54.70;;;;;;6139874;23;20036;-95
2022/04/20 13:29:02;;;;;;;9.52;3.97;;;19.90;54.70;;;;;;6167925;23;20089;-95
2022/04/20 13:31:29;;;;;;;8.60;3.45;;;19.90;54.50;;;;;;6167972;23;20002;-95
2022/04/20 13:33:55;;;;;;;7.03;3.70;;;20.00;54.80;;;;;;6163121;23;20448;-95
2022/04/20 13:36:21;;;;;;;9.45;3.55;;;20.20;54.40;;;;;;6137410;23;20001;-96
2022/04/20 13:38:48;;;;;;;8.73;3.15;;;20.30;53.60;;;;;;6148532;23;19996;-95
2022/04/20 13:41:14;;;;;;;7.65;4.25;;;20.60;53.90;;;;;;6154068;23;20040;-96
2022/04/20 13:43:41;;;;;;;9.10;3.60;;;20.90;53.20;;;;;;6165957;23;20008;-95
2022/04/20 13:46:08;;;;;;;9.07;3.78;;;21.20;52.40;;;;;;6140043;23;20001;-94
2022/04/20 13:48:34;;;;;;;8.98;3.90;;;21.30;52.40;;;;;;6160729;23;20473;-94
2022/04/20 13:51:00;;;;;;;7.32;3.97;;;21.50;52.30;;;;;;6136651;23;20092;-95
2022/04/20 13:53:27;;;;;;;6.53;3.35;;;21.50;51.80;;;;;;6166369;23;20445;-96
2022/04/20 13:55:53;;;;;;;8.10;3.53;;;21.60;51.90;;;;;;6163926;23;20013;-95
2022/04/20 13:58:20;;;;;;;6.93;3.70;;;21.90;51.90;;;;;;6147043;23;20260;-96
2022/04/20 14:00:46;;;;;;;6.85;4.07;;;21.90;50.90;;;;;;6172409;23;20005;-96